Decoded Metar for LFPV (VILLACOUBLAY in FRANCE) (IATA:N/A) | Meteo·Mobile Aviation Weather
aviador You're here:

LFPV Decoded Metar

VILLACOUBLAY in FRANCE
Report Time2019-07-21 17:00:00
UTC Time2019-07-21 17:33:17
Flight Rules vfr VFR
Wind270° at 07 kt
W.Decomp.*RWY 27: 7.0 kt HW 0.1 kt RCW
Visibility9999 m
Phenomena:N/A
Clouds:N/A
Expected CloudBase > 5,600 ft AGL from Temp-Dew spread
CeilingNone
Temp26°C (ISA +12)
Dew Point12°C (42% RH)
AAT24.1°C
QNH1022 hPa
Density Alt1,880 ft
Elevation587 ft
Report Wrong Elevation
Raw Report
LFPV 211700Z AUTO 27007KT 210V300 CAVOK 26/12 Q1022 NOSIG=

Extra information for LFPV:More info

Metar Taf Metar & Taf Last 4 Metars F.Rules Stats Wind Profile Meteogram Temp Stats Airport Information Weather charts Add Link Nearby VenuesMetar ALERT Operation Metar Decoded Social comments